»·PEaware :: DAL2546 KSAN-KSLC

DAL2546 :: KSAN-KSLC

FLIGHT INFORMATION

Flight Status: Arrived
Operator:
Delta Air Lines
More flights by this operator :: More flights under this callsign
Pilot: Joe P. (13940)
Aircraft: BOEING 737-700
(B737)
More flights by this aircraft type
Origin: KSAN San Diego Intl-Lindbergh
United States
Destination: KSLC Salt Lake City Intl
United States
More flights between these airports :: More routes between these airports
Route: ZZOOO2 MTBAL AVRRY CADEZ HAKMN Q73 LAKRR MLF QWENN5
File this flight plan on PilotEdge
Remarks: KLAS -PBN / A1B1C1D1L1O1S1 NAV / RNVD1E2A1 DOF / 180820 REG / N389DA EET / KZLC0056 RVR / 200 PER / C
Altitude:
(Current/Filed)
350ft
Speed:
(Current/Filed)
460kts
Departed: 19-Aug-18 06:04 PM
Arrived: 19-Aug-18 07:33 PM
Distance/Time
Traveled:
544nm/1:28
Distance/Time
To Go:
Arrived

Flight Plot

Page will automatically refresh every two minutes.

Flight plan parsing failed; only flown route is shown


Map Options




Map Legend


Flown Route
Filed Route
Departure Airport
Arrival Airport
Navaid (VOR, NDB)
Fix

Horizontal Profiles

Position Reports

Time Latitude Longitude Heading Altitude Ground
Speed
19-Aug-18 17:10 32.732504 -117.205422 169 23ft 0kts
19-Aug-18 17:11 32.732504 -117.205422 169 23ft 0kts
19-Aug-18 17:12 32.732504 -117.205422 169 23ft 0kts
19-Aug-18 17:13 32.732504 -117.205422 169 23ft 0kts
19-Aug-18 17:14 32.732504 -117.205422 169 23ft 0kts
19-Aug-18 17:15 32.732504 -117.205422 169 23ft 0kts
19-Aug-18 17:16 32.732504 -117.205422 169 23ft 0kts
19-Aug-18 17:17 32.732504 -117.205422 169 23ft 0kts
19-Aug-18 17:18 32.732504 -117.205422 169 23ft 0kts
19-Aug-18 17:19 32.732504 -117.205422 169 23ft 0kts
19-Aug-18 17:20 32.732504 -117.205422 169 23ft 0kts
19-Aug-18 17:21 32.732504 -117.205422 169 23ft 0kts
19-Aug-18 17:22 32.732504 -117.205422 169 23ft 0kts
19-Aug-18 17:23 32.732504 -117.205422 169 23ft 0kts
19-Aug-18 17:24 32.732504 -117.205422 169 23ft 0kts
19-Aug-18 17:25 32.732504 -117.205422 169 23ft 0kts
19-Aug-18 17:26 32.732504 -117.205422 169 23ft 0kts
19-Aug-18 17:27 32.732504 -117.205422 169 23ft 0kts
19-Aug-18 17:28 32.732504 -117.205422 169 23ft 0kts
19-Aug-18 17:29 32.732504 -117.205422 169 23ft 0kts
19-Aug-18 17:30 32.732504 -117.205422 169 23ft 0kts
19-Aug-18 17:31 32.732504 -117.205422 169 23ft 0kts
19-Aug-18 17:32 32.732504 -117.205422 169 23ft 0kts
19-Aug-18 17:33 32.732504 -117.205422 169 23ft 0kts
19-Aug-18 17:34 32.732504 -117.205422 169 23ft 0kts
19-Aug-18 17:35 32.732504 -117.205422 169 23ft 0kts
19-Aug-18 17:36 32.732504 -117.205422 169 23ft 0kts
19-Aug-18 17:37 32.732504 -117.205422 169 23ft 0kts
19-Aug-18 17:38 32.732504 -117.205422 169 23ft 0kts
19-Aug-18 17:39 32.732504 -117.205422 169 23ft 0kts
19-Aug-18 17:40 32.732504 -117.205422 169 23ft 0kts
19-Aug-18 17:41 32.732504 -117.205422 169 23ft 0kts
19-Aug-18 17:42 32.732504 -117.205422 169 23ft 0kts
19-Aug-18 17:43 32.732504 -117.205422 169 23ft 0kts
19-Aug-18 17:44 32.732504 -117.205422 169 23ft 0kts
19-Aug-18 17:45 32.732504 -117.205422 169 23ft 0kts
19-Aug-18 17:46 32.732697 -117.205463 169 23ft 0kts
19-Aug-18 17:47 32.732889 -117.205504 169 23ft 0kts
19-Aug-18 17:48 32.732889 -117.205504 169 23ft 0kts
19-Aug-18 17:49 32.733551 -117.205531 202 23ft 2kts
19-Aug-18 17:50 32.733859 -117.205216 237 23ft 0kts
19-Aug-18 17:51 32.733859 -117.205216 237 23ft 0kts
19-Aug-18 17:52 32.733859 -117.205216 237 23ft 0kts
19-Aug-18 17:53 32.733859 -117.205216 237 23ft 0kts
19-Aug-18 17:54 32.733859 -117.205217 237 23ft 0kts
19-Aug-18 17:55 32.733858 -117.205219 237 23ft 0kts
19-Aug-18 17:56 32.733765 -117.205753 276 23ft 10kts
19-Aug-18 17:57 32.735553 -117.202651 93 22ft 15kts
19-Aug-18 17:58 32.734044 -117.195820 106 23ft 17kts
19-Aug-18 17:59 32.732654 -117.190079 106 23ft 16kts
19-Aug-18 18:00 32.731217 -117.184369 106 23ft 19kts
19-Aug-18 18:01 32.729815 -117.178482 109 22ft 15kts
19-Aug-18 18:02 32.729510 -117.176713 72 23ft 0kts
19-Aug-18 18:03 32.729528 -117.176653 69 23ft 1kts
19-Aug-18 18:04 32.730230 -117.175968 289 23ft 4kts
19-Aug-18 18:05 32.734829 -117.194640 286 135ft 167kts
19-Aug-18 18:06 32.748489 -117.251019 285 2910ft 211kts
19-Aug-18 18:07 32.732558 -117.321536 203 4907ft 274kts
19-Aug-18 18:08 32.667453 -117.283258 136 8000ft 292kts
19-Aug-18 18:09 32.628620 -117.200336 98 10874ft 306kts
19-Aug-18 18:10 32.617673 -117.089122 96 12324ft 365kts
19-Aug-18 18:11 32.606475 -116.966926 96 14692ft 380kts
19-Aug-18 18:12 32.616484 -116.840480 76 16915ft 394kts
19-Aug-18 18:13 32.688691 -116.746298 27 18860ft 411kts
19-Aug-18 18:14 32.795811 -116.692328 23 20624ft 424kts
19-Aug-18 18:15 32.906356 -116.638167 23 22207ft 434kts
19-Aug-18 18:16 33.018993 -116.582632 24 22950ft 440kts
19-Aug-18 18:17 33.131290 -116.523925 24 22934ft 439kts
19-Aug-18 18:18 33.243001 -116.465406 24 22889ft 439kts
19-Aug-18 18:19 33.355688 -116.406045 26 23959ft 446kts
19-Aug-18 18:20 33.446595 -116.305824 54 25142ft 452kts
19-Aug-18 18:21 33.520263 -116.181872 54 26229ft 461kts
19-Aug-18 18:22 33.594406 -116.054243 59 27237ft 469kts
19-Aug-18 18:23 33.645646 -115.909957 69 28173ft 475kts
19-Aug-18 18:24 33.692655 -115.760483 69 29188ft 478kts
19-Aug-18 18:25 33.741856 -115.612479 57 30440ft 476kts
19-Aug-18 18:26 33.848198 -115.523053 23 31729ft 472kts
19-Aug-18 18:27 33.969192 -115.462324 21 33023ft 469kts
19-Aug-18 18:28 34.089451 -115.401943 21 34289ft 466kts
19-Aug-18 18:29 34.210642 -115.344369 13 34796ft 468kts
19-Aug-18 18:30 34.337401 -115.316734 7 34819ft 463kts
19-Aug-18 18:31 34.464648 -115.291299 7 34826ft 463kts
19-Aug-18 18:32 34.591814 -115.265814 7 34822ft 462kts
19-Aug-18 18:33 34.718745 -115.240320 7 34810ft 462kts
19-Aug-18 18:34 34.845413 -115.214762 7 34797ft 462kts
19-Aug-18 18:35 34.972358 -115.189059 7 34784ft 462kts
19-Aug-18 18:36 35.099237 -115.163285 7 34777ft 462kts
19-Aug-18 18:37 35.226108 -115.137465 7 34798ft 461kts
19-Aug-18 18:38 35.352493 -115.111628 7 34821ft 461kts
19-Aug-18 18:39 35.478928 -115.082786 17 34834ft 464kts
19-Aug-18 18:40 35.579815 -114.983019 46 34857ft 475kts
19-Aug-18 18:41 35.667232 -114.862126 45 34864ft 474kts
19-Aug-18 18:42 35.755460 -114.741277 45 34856ft 474kts
19-Aug-18 18:43 35.843392 -114.620285 45 34860ft 474kts
19-Aug-18 18:44 35.931784 -114.499085 45 34867ft 474kts
19-Aug-18 18:45 36.019518 -114.377596 45 34877ft 475kts
19-Aug-18 18:46 36.116583 -114.270251 25 34882ft 465kts
19-Aug-18 18:47 36.234153 -114.204527 20 34885ft 463kts
19-Aug-18 18:48 36.352362 -114.140474 20 34921ft 463kts
19-Aug-18 18:49 36.470464 -114.076192 20 34929ft 463kts
19-Aug-18 18:50 36.588604 -114.011585 20 34933ft 464kts
19-Aug-18 18:51 36.706551 -113.946742 20 34931ft 462kts
19-Aug-18 18:52 36.824297 -113.881786 19 34947ft 462kts
19-Aug-18 18:53 36.942260 -113.816473 19 34945ft 463kts
19-Aug-18 18:54 37.060046 -113.751025 19 34951ft 463kts
19-Aug-18 18:55 37.177564 -113.685488 19 34944ft 463kts
19-Aug-18 18:56 37.275700 -113.630622 19 34955ft 463kts
19-Aug-18 18:57 37.413236 -113.553440 19 35008ft 463kts
19-Aug-18 18:58 37.531050 -113.487064 19 35073ft 464kts
19-Aug-18 18:59 37.629364 -113.431513 19 35119ft 464kts
19-Aug-18 19:00 37.766627 -113.353674 19 35160ft 464kts
19-Aug-18 19:01 37.884100 -113.286803 19 35169ft 464kts
19-Aug-18 19:02 37.982347 -113.230693 19 35164ft 464kts
19-Aug-18 19:03 38.119462 -113.152248 19 35155ft 464kts
19-Aug-18 19:04 38.217640 -113.095757 19 35149ft 464kts
19-Aug-18 19:05 38.334869 -113.028009 19 35154ft 463kts
19-Aug-18 19:06 38.453080 -112.963639 17 35150ft 461kts
19-Aug-18 19:07 38.571375 -112.900783 17 35156ft 461kts
19-Aug-18 19:08 38.689881 -112.837426 17 35165ft 461kts
19-Aug-18 19:09 38.807810 -112.773937 17 33616ft 459kts
19-Aug-18 19:10 38.925344 -112.710482 18 31061ft 454kts
19-Aug-18 19:11 39.039899 -112.648534 18 28964ft 440kts
19-Aug-18 19:12 39.151495 -112.587942 18 26937ft 428kts
19-Aug-18 19:13 39.259737 -112.528813 19 24946ft 419kts
19-Aug-18 19:14 39.364994 -112.469835 20 23315ft 403kts
19-Aug-18 19:15 39.467549 -112.410904 20 21933ft 400kts
19-Aug-18 19:16 39.568154 -112.352821 20 20580ft 391kts
19-Aug-18 19:17 39.666348 -112.296062 21 19258ft 383kts
19-Aug-18 19:18 39.762725 -112.240426 21 17920ft 375kts
19-Aug-18 19:19 39.856968 -112.185555 21 16562ft 368kts
19-Aug-18 19:20 39.949497 -112.131607 21 15304ft 361kts
19-Aug-18 19:21 40.038338 -112.078674 22 15022ft 332kts
19-Aug-18 19:22 40.116810 -112.031155 22 14470ft 303kts
19-Aug-18 19:23 40.196081 -111.982956 23 12478ft 324kts
19-Aug-18 19:24 40.280683 -111.938434 6 10474ft 327kts
19-Aug-18 19:25 40.363829 -111.936795 0 10015ft 265kts
19-Aug-18 19:26 40.433698 -111.935379 357 9295ft 242kts
19-Aug-18 19:27 40.499357 -111.941405 354 9027ft 218kts
19-Aug-18 19:28 40.551473 -111.947274 354 8526ft 171kts
19-Aug-18 19:29 40.598342 -111.952661 354 7607ft 170kts
19-Aug-18 19:30 40.645971 -111.958151 354 6729ft 175kts
19-Aug-18 19:31 40.693238 -111.963614 354 5848ft 166kts
19-Aug-18 19:32 40.741182 -111.969162 354 4898ft 171kts
19-Aug-18 19:33 40.787026 -111.974444 355 4235ft 129kts
19-Aug-18 19:34 40.796931 -111.976623 263 4235ft 0kts
19-Aug-18 19:35 40.796931 -111.976625 263 4235ft 0kts
19-Aug-18 19:36 40.796854 -111.977322 255 4235ft 6kts
19-Aug-18 19:37 40.794171 -111.977635 174 4235ft 13kts
19-Aug-18 19:38 40.790441 -111.977537 240 4235ft 10kts
19-Aug-18 19:39 40.788921 -111.979819 176 4235ft 9kts
19-Aug-18 19:40 40.788533 -111.980743 283 4235ft 0kts
19-Aug-18 19:41 40.788533 -111.980743 283 4235ft 0kts
19-Aug-18 19:42 40.788533 -111.980743 283 4235ft 0kts
19-Aug-18 19:43 40.788533 -111.980743 283 4235ft 0kts
19-Aug-18 19:44 40.788533 -111.980743 283 4235ft 0kts
19-Aug-18 19:45 40.788533 -111.980743 283 4235ft 0kts
19-Aug-18 19:46 40.788533 -111.980743 283 4235ft 0kts
19-Aug-18 19:47 40.788533 -111.980743 283 4235ft 0kts

Navigation Log

Ident Type
Flight plan parsing failed, navigation log unavailable